createdAt,value
2023-05-05T00:01:25.484Z,8.57
2023-05-05T00:03:52.619Z,8.56
2023-05-05T00:06:19.299Z,8.51
2023-05-05T00:08:46.402Z,8.44
2023-05-05T00:11:13.063Z,8.39
2023-05-05T00:13:39.631Z,8.35
2023-05-05T00:16:06.263Z,8.31
2023-05-05T00:18:33.891Z,8.22
2023-05-05T00:21:00.451Z,8.17
2023-05-05T00:23:27.139Z,8.12
2023-05-05T00:25:53.867Z,8.06
2023-05-05T00:28:20.842Z,8.00
2023-05-05T00:30:47.479Z,7.95
2023-05-05T00:33:14.116Z,7.89
2023-05-05T00:35:40.745Z,7.87
2023-05-05T00:38:07.506Z,7.82
2023-05-05T00:40:34.030Z,7.78
2023-05-05T00:43:00.679Z,7.75
2023-05-05T00:45:27.510Z,7.71
2023-05-05T00:47:54.956Z,7.66
2023-05-05T00:50:25.894Z,7.61
2023-05-05T00:52:54.344Z,7.57
2023-05-05T00:55:21.745Z,7.52
2023-05-05T00:57:48.715Z,7.46
2023-05-05T01:00:15.613Z,7.39
2023-05-05T01:02:42.397Z,7.36
2023-05-05T01:05:09.676Z,7.32
2023-05-05T01:07:39.218Z,7.28
2023-05-05T01:10:24.808Z,7.23
2023-05-05T01:12:56.268Z,7.23
2023-05-05T01:15:37.768Z,7.20
2023-05-05T01:18:10.043Z,7.25
2023-05-05T01:20:42.423Z,7.46
2023-05-05T01:23:12.688Z,7.67
2023-05-05T01:25:39.294Z,7.70
2023-05-05T01:28:11.658Z,7.71
2023-05-05T01:30:56.200Z,7.75
2023-05-05T01:33:27.565Z,7.75
2023-05-05T01:35:56.696Z,7.75
2023-05-05T01:38:26.269Z,7.74
2023-05-05T01:41:01.045Z,7.76
2023-05-05T01:43:29.746Z,7.75
2023-05-05T01:45:57.464Z,7.75
2023-05-05T01:48:24.636Z,7.76
2023-05-05T01:50:52.279Z,7.73
2023-05-05T01:53:20.242Z,7.82
2023-05-05T01:55:48.002Z,7.74
2023-05-05T01:58:16.023Z,7.71
2023-05-05T02:00:44.093Z,7.71
2023-05-05T02:03:12.555Z,7.71
2023-05-05T02:05:39.810Z,7.73
2023-05-05T02:08:06.827Z,7.73
2023-05-05T02:10:34.209Z,7.74
2023-05-05T02:13:02.662Z,7.70
2023-05-05T02:15:30.278Z,7.74
2023-05-05T02:17:58.185Z,7.71
2023-05-05T02:20:27.228Z,7.68
2023-05-05T02:22:54.239Z,7.59
2023-05-05T02:25:21.796Z,7.57
2023-05-05T02:27:49.301Z,7.58
2023-05-05T02:30:18.311Z,7.54
2023-05-05T02:32:47.401Z,7.51
2023-05-05T02:35:37.054Z,7.43
2023-05-05T02:38:05.653Z,7.41
2023-05-05T02:40:34.236Z,7.39
2023-05-05T02:43:03.702Z,7.48
2023-05-05T02:45:30.255Z,7.39
2023-05-05T02:47:56.923Z,7.36
2023-05-05T02:50:23.515Z,7.35
2023-05-05T02:52:50.106Z,7.32
2023-05-05T02:55:16.736Z,7.30
2023-05-05T02:58:02.001Z,7.33
2023-05-05T03:00:34.791Z,7.27
2023-05-05T03:03:06.852Z,7.23
2023-05-05T03:05:37.578Z,7.21
2023-05-05T03:08:14.124Z,7.07
2023-05-05T03:10:47.087Z,7.07
2023-05-05T03:13:16.876Z,7.10
2023-05-05T03:15:46.130Z,7.01
2023-05-05T03:18:15.533Z,6.99
2023-05-05T03:20:42.509Z,6.99
2023-05-05T03:23:09.200Z,6.93
2023-05-05T03:25:45.968Z,6.93
2023-05-05T03:28:13.679Z,6.92
2023-05-05T03:30:40.434Z,6.91
2023-05-05T03:33:07.797Z,6.82
2023-05-05T03:35:34.458Z,6.69
2023-05-05T03:38:01.008Z,6.63
2023-05-05T03:40:40.402Z,6.53
2023-05-05T03:43:10.692Z,6.44
2023-05-05T03:45:37.888Z,6.36
2023-05-05T03:48:04.749Z,6.24
2023-05-05T03:50:31.395Z,6.11
2023-05-05T03:52:57.912Z,6.08
2023-05-05T03:55:24.639Z,6.04
2023-05-05T03:57:51.234Z,6.00
2023-05-05T04:00:18.087Z,5.94
2023-05-05T04:02:44.750Z,5.84
2023-05-05T04:05:11.610Z,5.76
2023-05-05T04:07:38.138Z,5.77
2023-05-05T04:10:04.832Z,5.74
2023-05-05T04:12:31.411Z,5.76
2023-05-05T04:14:58.048Z,5.79
2023-05-05T04:17:24.599Z,5.72
2023-05-05T04:19:51.141Z,5.68
2023-05-05T04:22:17.753Z,5.69
2023-05-05T04:24:44.282Z,5.70
2023-05-05T04:27:10.877Z,5.71
2023-05-05T04:29:37.444Z,5.66
2023-05-05T04:32:07.162Z,5.63
2023-05-05T04:34:34.940Z,5.49
2023-05-05T04:37:01.490Z,5.37
2023-05-05T04:39:28.056Z,5.39
2023-05-05T04:41:54.559Z,5.42
2023-05-05T04:44:21.225Z,5.45
2023-05-05T04:46:47.799Z,5.45
2023-05-05T04:49:14.428Z,5.40
2023-05-05T04:51:44.147Z,5.42
2023-05-05T04:54:10.875Z,5.33
2023-05-05T04:56:37.522Z,5.24
2023-05-05T04:59:04.131Z,5.14
2023-05-05T05:01:31.750Z,5.07
2023-05-05T05:03:58.658Z,5.13
2023-05-05T05:06:25.979Z,5.14
2023-05-05T05:08:52.581Z,5.04
2023-05-05T05:11:19.603Z,5.10
2023-05-05T05:13:46.383Z,5.08
2023-05-05T05:16:13.274Z,5.22
2023-05-05T05:18:39.892Z,5.40
2023-05-05T05:21:06.546Z,5.48
2023-05-05T05:23:33.126Z,5.61
2023-05-05T05:25:59.705Z,5.63
2023-05-05T05:28:26.739Z,5.63
2023-05-05T05:30:53.306Z,5.60
2023-05-05T05:33:19.935Z,5.41
2023-05-05T05:35:46.522Z,5.40
2023-05-05T05:38:13.081Z,5.45
2023-05-05T05:40:39.690Z,5.60
2023-05-05T05:43:06.566Z,5.69
2023-05-05T05:45:33.145Z,5.79
2023-05-05T05:47:59.741Z,5.91
2023-05-05T05:50:28.687Z,5.93
2023-05-05T05:52:55.988Z,6.02
2023-05-05T05:55:22.594Z,6.02
2023-05-05T05:57:49.186Z,6.09
2023-05-05T06:00:16.006Z,6.16
2023-05-05T06:02:42.768Z,6.20
2023-05-05T06:05:10.445Z,6.22
2023-05-05T06:07:37.620Z,6.28
2023-05-05T06:10:18.579Z,6.29
2023-05-05T06:12:51.297Z,6.24
2023-05-05T06:15:17.817Z,6.13
2023-05-05T06:17:44.477Z,6.09
2023-05-05T06:20:11.380Z,6.08
2023-05-05T06:22:38.020Z,6.00
2023-05-05T06:25:04.670Z,5.90
2023-05-05T06:27:31.267Z,6.00
2023-05-05T06:29:57.790Z,6.01
2023-05-05T06:32:24.417Z,6.12
2023-05-05T06:34:51.051Z,6.27
2023-05-05T06:37:17.598Z,6.24
2023-05-05T06:39:44.204Z,6.26
2023-05-05T06:42:10.947Z,6.23
2023-05-05T06:44:37.624Z,6.40
2023-05-05T06:47:04.403Z,6.44
2023-05-05T06:49:31.211Z,6.44
2023-05-05T06:51:57.807Z,6.49
2023-05-05T06:54:24.438Z,6.55
2023-05-05T06:56:50.988Z,6.56
2023-05-05T06:59:17.554Z,6.63
2023-05-05T07:01:44.148Z,6.60
2023-05-05T07:04:11.266Z,6.66
2023-05-05T07:06:37.900Z,6.69
2023-05-05T07:09:04.561Z,6.52
2023-05-05T07:11:31.093Z,6.65
2023-05-05T07:13:57.691Z,6.76
2023-05-05T07:16:24.834Z,6.85
2023-05-05T07:18:51.434Z,6.96
2023-05-05T07:21:17.977Z,7.00
2023-05-05T07:23:46.366Z,7.06
2023-05-05T07:26:13.249Z,7.17
2023-05-05T07:28:39.893Z,7.20
2023-05-05T07:31:06.460Z,7.23
2023-05-05T07:33:33.040Z,7.28
2023-05-05T07:35:59.710Z,7.30
2023-05-05T07:38:26.472Z,7.23
2023-05-05T07:40:53.010Z,7.17
2023-05-05T07:43:19.571Z,7.13
2023-05-05T07:45:46.369Z,7.11
2023-05-05T07:48:13.014Z,7.21
2023-05-05T07:50:39.642Z,7.27
2023-05-05T07:53:14.382Z,7.37
2023-05-05T07:55:41.925Z,7.31
2023-05-05T07:58:08.723Z,7.38
2023-05-05T08:00:35.613Z,7.25
2023-05-05T08:03:02.367Z,6.87
2023-05-05T08:05:29.117Z,6.61
2023-05-05T08:07:55.817Z,6.29
2023-05-05T08:10:22.782Z,6.16
2023-05-05T08:12:49.487Z,6.16
2023-05-05T08:15:16.186Z,6.16
2023-05-05T08:17:46.787Z,6.23
2023-05-05T08:20:13.983Z,6.22
2023-05-05T08:22:41.014Z,6.19
2023-05-05T08:25:08.037Z,6.13
2023-05-05T08:27:35.408Z,6.13
2023-05-05T08:30:04.066Z,5.94
2023-05-05T08:32:31.372Z,5.78
2023-05-05T08:34:57.987Z,5.77
2023-05-05T08:37:24.823Z,5.73
2023-05-05T08:39:51.403Z,5.91
2023-05-05T08:42:29.312Z,5.87
2023-05-05T08:45:02.534Z,5.76
2023-05-05T08:47:31.553Z,5.87
2023-05-05T08:49:59.222Z,5.92
2023-05-05T08:52:28.994Z,5.62
2023-05-05T08:54:59.270Z,5.44
2023-05-05T08:57:31.705Z,5.31
2023-05-05T08:59:59.226Z,5.02
2023-05-05T09:02:28.543Z,4.97
2023-05-05T09:04:56.214Z,5.10
2023-05-05T09:07:22.861Z,5.20
2023-05-05T09:09:49.454Z,5.14
2023-05-05T09:12:17.945Z,5.18
2023-05-05T09:14:46.136Z,5.14
2023-05-05T09:17:23.561Z,4.96
2023-05-05T09:20:07.138Z,4.81
2023-05-05T09:22:34.386Z,4.92
2023-05-05T09:25:01.009Z,4.94
2023-05-05T09:27:27.766Z,5.03
2023-05-05T09:29:54.881Z,5.06
2023-05-05T09:32:21.705Z,5.12
2023-05-05T09:34:59.109Z,5.11
2023-05-05T09:37:34.836Z,5.13
2023-05-05T09:40:01.840Z,5.24
2023-05-05T09:42:29.839Z,5.41
2023-05-05T09:44:59.104Z,5.44
2023-05-05T09:47:36.162Z,5.60
2023-05-05T09:50:02.983Z,5.60
2023-05-05T09:52:30.522Z,5.68
2023-05-05T09:54:57.442Z,5.64
2023-05-05T09:57:27.346Z,5.60
2023-05-05T10:00:04.388Z,5.55
2023-05-05T10:02:35.600Z,5.60
2023-05-05T10:05:06.675Z,5.68
2023-05-05T10:07:33.323Z,5.69
2023-05-05T10:09:59.884Z,5.84
2023-05-05T10:12:27.037Z,5.98
2023-05-05T10:14:55.364Z,6.03
2023-05-05T10:17:23.125Z,5.93
2023-05-05T10:19:53.138Z,5.79
2023-05-05T10:22:22.847Z,5.66
2023-05-05T10:25:08.174Z,5.45
2023-05-05T10:27:38.727Z,5.52
2023-05-05T10:30:06.325Z,5.50
2023-05-05T10:32:56.826Z,5.51
2023-05-05T10:35:33.006Z,5.62
2023-05-05T10:38:00.182Z,5.57
2023-05-05T10:40:26.926Z,5.52
2023-05-05T10:42:54.178Z,5.72
2023-05-05T10:45:20.898Z,5.74
2023-05-05T10:47:47.658Z,5.71
2023-05-05T10:50:31.500Z,5.74
2023-05-05T10:52:58.020Z,6.03
2023-05-05T10:55:24.538Z,6.01
2023-05-05T10:57:52.747Z,6.00
2023-05-05T11:00:42.466Z,6.19
2023-05-05T11:03:18.242Z,6.22
2023-05-05T11:06:04.003Z,6.44
2023-05-05T11:08:34.689Z,6.65
2023-05-05T11:11:01.774Z,6.69
2023-05-05T11:13:29.331Z,6.60
2023-05-05T11:15:57.187Z,6.56
2023-05-05T11:18:36.780Z,6.21
2023-05-05T11:21:04.442Z,6.12
2023-05-05T11:23:31.755Z,6.16
2023-05-05T11:25:59.008Z,6.29
2023-05-05T11:28:29.737Z,6.14
2023-05-05T11:30:59.624Z,6.09
2023-05-05T11:33:33.978Z,6.06
2023-05-05T11:36:05.749Z,5.84
2023-05-05T11:38:42.858Z,5.95
2023-05-05T11:41:14.144Z,5.73
2023-05-05T11:43:41.812Z,5.59
2023-05-05T11:46:14.640Z,5.64
2023-05-05T11:48:46.102Z,5.78
2023-05-05T11:51:16.345Z,5.84
2023-05-05T11:53:48.854Z,6.29
2023-05-05T11:56:22.524Z,6.43
2023-05-05T11:58:49.768Z,6.64
2023-05-05T12:01:16.762Z,6.80
2023-05-05T12:03:45.728Z,7.59
2023-05-05T12:06:13.005Z,8.54
2023-05-05T12:08:40.201Z,8.28
2023-05-05T12:11:08.129Z,7.84
2023-05-05T12:13:34.970Z,7.23
2023-05-05T12:16:14.399Z,6.85
2023-05-05T12:18:41.546Z,7.38
2023-05-05T12:21:20.541Z,8.40
2023-05-05T12:23:47.182Z,9.84
2023-05-05T12:26:30.060Z,10.28
2023-05-05T12:28:57.550Z,10.96
2023-05-05T12:31:34.459Z,11.05
2023-05-05T12:34:01.923Z,11.11
2023-05-05T12:36:30.600Z,11.05
2023-05-05T12:38:57.255Z,10.85
2023-05-05T12:41:23.887Z,11.00
2023-05-05T12:43:59.345Z,11.12
2023-05-05T12:46:26.615Z,10.88
2023-05-05T12:49:05.203Z,10.53
2023-05-05T12:51:32.726Z,10.20
2023-05-05T12:54:05.228Z,9.73
2023-05-05T12:56:34.942Z,9.79
2023-05-05T12:59:06.517Z,10.17
2023-05-05T13:01:34.057Z,10.24
2023-05-05T13:04:19.630Z,9.61
2023-05-05T13:06:47.277Z,8.63
2023-05-05T13:09:27.031Z,8.21
2023-05-05T13:11:54.688Z,7.99
2023-05-05T13:14:21.587Z,7.58
2023-05-05T13:16:48.169Z,7.18
2023-05-05T13:19:14.773Z,6.97
2023-05-05T13:21:41.873Z,6.99
2023-05-05T13:24:25.366Z,7.17
2023-05-05T13:26:55.928Z,8.42
2023-05-05T13:29:24.320Z,9.80
2023-05-05T13:31:52.739Z,10.93
2023-05-05T13:34:19.297Z,11.60
2023-05-05T13:36:45.914Z,11.61
2023-05-05T13:39:12.739Z,11.30
2023-05-05T13:41:39.417Z,11.73
2023-05-05T13:44:06.041Z,12.29
2023-05-05T13:46:32.765Z,12.27
2023-05-05T13:48:59.403Z,12.25
2023-05-05T13:51:26.018Z,12.66
2023-05-05T13:53:52.733Z,11.94
2023-05-05T13:56:19.485Z,10.98
2023-05-05T13:58:46.422Z,9.86
2023-05-05T14:01:13.401Z,9.17
2023-05-05T14:03:40.236Z,8.64
2023-05-05T14:06:07.519Z,8.37
2023-05-05T14:08:34.149Z,8.10
2023-05-05T14:11:00.753Z,7.84
2023-05-05T14:13:27.576Z,7.74
2023-05-05T14:15:54.200Z,7.62
2023-05-05T14:18:20.945Z,7.39
2023-05-05T14:20:47.516Z,7.30
2023-05-05T14:23:14.133Z,7.24
2023-05-05T14:25:40.716Z,7.29
2023-05-05T14:28:07.399Z,7.25
2023-05-05T14:30:33.981Z,7.02
2023-05-05T14:33:01.461Z,6.94
2023-05-05T14:35:28.186Z,6.90
2023-05-05T14:37:54.703Z,7.02
2023-05-05T14:40:21.319Z,7.70
2023-05-05T14:42:49.131Z,8.68
2023-05-05T14:45:15.816Z,9.04
2023-05-05T14:47:42.487Z,9.06
2023-05-05T14:50:09.922Z,9.20
2023-05-05T14:52:37.362Z,8.87
2023-05-05T14:55:03.977Z,9.02
2023-05-05T14:57:30.638Z,9.41
2023-05-05T14:59:57.191Z,9.78
2023-05-05T15:02:23.862Z,10.05
2023-05-05T15:04:52.598Z,10.20
2023-05-05T15:07:20.510Z,9.81
2023-05-05T15:09:47.110Z,9.94
2023-05-05T15:12:13.894Z,9.75
2023-05-05T15:14:40.889Z,9.55
2023-05-05T15:17:07.424Z,9.20
2023-05-05T15:19:33.983Z,8.85
2023-05-05T15:22:00.703Z,8.44
2023-05-05T15:24:27.289Z,8.19
2023-05-05T15:26:53.840Z,8.06
2023-05-05T15:29:20.505Z,7.78
2023-05-05T15:31:47.129Z,7.75
2023-05-05T15:34:13.855Z,7.50
2023-05-05T15:36:40.475Z,7.43
2023-05-05T15:39:07.083Z,7.52
2023-05-05T15:41:36.774Z,7.45
2023-05-05T15:44:04.863Z,7.34
2023-05-05T15:46:33.318Z,7.18
2023-05-05T15:49:00.039Z,7.07
2023-05-05T15:51:26.724Z,7.06
2023-05-05T15:53:53.372Z,7.04
2023-05-05T15:56:20.002Z,7.02
2023-05-05T15:58:46.600Z,7.04
2023-05-05T16:01:13.192Z,7.02
2023-05-05T16:03:39.958Z,6.96
2023-05-05T16:06:06.769Z,6.97
2023-05-05T16:08:33.638Z,6.94
2023-05-05T16:11:00.340Z,6.87
2023-05-05T16:13:26.912Z,6.82
2023-05-05T16:15:53.475Z,6.84
2023-05-05T16:18:20.132Z,6.72
2023-05-05T16:20:46.753Z,6.74
2023-05-05T16:23:13.341Z,6.72
2023-05-05T16:25:39.911Z,6.76
2023-05-05T16:28:06.979Z,6.68
2023-05-05T16:30:33.583Z,6.60
2023-05-05T16:33:00.218Z,6.60
2023-05-05T16:35:26.943Z,6.59
2023-05-05T16:37:53.543Z,6.53
2023-05-05T16:40:20.069Z,6.43
2023-05-05T16:42:46.986Z,6.41
2023-05-05T16:45:13.534Z,6.37
2023-05-05T16:47:40.226Z,6.35
2023-05-05T16:50:07.179Z,6.35
2023-05-05T16:52:33.721Z,6.30
2023-05-05T16:55:00.348Z,6.28
2023-05-05T16:57:27.002Z,6.22
2023-05-05T16:59:54.956Z,6.16
2023-05-05T17:02:21.642Z,6.13
2023-05-05T17:04:48.273Z,6.10
2023-05-05T17:07:14.811Z,6.06
2023-05-05T17:09:41.386Z,6.05
2023-05-05T17:12:08.086Z,6.01
2023-05-05T17:14:35.524Z,6.01
2023-05-05T17:17:02.199Z,5.97
2023-05-05T17:19:28.935Z,5.97
2023-05-05T17:21:56.055Z,5.92
2023-05-05T17:24:25.779Z,5.91
2023-05-05T17:26:52.512Z,5.88
2023-05-05T17:29:20.260Z,5.85
2023-05-05T17:31:47.128Z,5.86
2023-05-05T17:34:13.780Z,5.84
2023-05-05T17:36:40.614Z,5.82
2023-05-05T17:39:07.421Z,5.77
2023-05-05T17:41:34.099Z,5.81
2023-05-05T17:44:00.695Z,5.73
2023-05-05T17:46:27.473Z,5.73
2023-05-05T17:48:54.700Z,5.75
2023-05-05T17:51:21.305Z,5.74
2023-05-05T17:53:47.870Z,5.65
2023-05-05T17:56:14.511Z,5.58
2023-05-05T17:58:41.319Z,5.50
2023-05-05T18:01:08.116Z,5.46
2023-05-05T18:03:34.840Z,5.43
2023-05-05T18:06:02.385Z,5.46
2023-05-05T18:08:28.995Z,5.39
2023-05-05T18:10:55.589Z,5.40
2023-05-05T18:13:22.232Z,5.38
2023-05-05T18:15:49.043Z,5.37
2023-05-05T18:18:15.772Z,5.38
2023-05-05T18:20:43.560Z,5.41
2023-05-05T18:23:11.207Z,5.43
2023-05-05T18:25:37.807Z,5.36
2023-05-05T18:28:04.719Z,5.31
2023-05-05T18:30:32.285Z,5.29
2023-05-05T18:32:59.091Z,5.18
2023-05-05T18:35:26.029Z,5.05
2023-05-05T18:37:54.489Z,4.99
2023-05-05T18:40:21.632Z,4.98
2023-05-05T18:42:48.229Z,4.93
2023-05-05T18:45:14.817Z,4.83
2023-05-05T18:47:41.682Z,4.76
2023-05-05T18:50:09.878Z,4.85
2023-05-05T18:52:36.504Z,4.92
2023-05-05T18:55:03.280Z,4.94
2023-05-05T18:57:29.919Z,4.92
2023-05-05T18:59:56.579Z,4.93
2023-05-05T19:02:23.422Z,4.96
2023-05-05T19:04:50.096Z,4.99
2023-05-05T19:07:31.340Z,4.96
2023-05-05T19:10:00.775Z,4.96
2023-05-05T19:12:27.362Z,4.95
2023-05-05T19:14:53.914Z,4.92
2023-05-05T19:17:20.472Z,4.87
2023-05-05T19:19:47.081Z,4.87
2023-05-05T19:22:13.702Z,4.88
2023-05-05T19:24:40.328Z,4.88
2023-05-05T19:27:08.154Z,4.87
2023-05-05T19:29:34.778Z,4.87
2023-05-05T19:32:01.378Z,4.85
2023-05-05T19:34:27.959Z,4.77
2023-05-05T19:36:54.532Z,4.78
2023-05-05T19:39:21.256Z,4.77
2023-05-05T19:41:47.903Z,4.72
2023-05-05T19:44:14.576Z,4.76
2023-05-05T19:46:41.297Z,4.68
2023-05-05T19:49:08.510Z,4.65
2023-05-05T19:51:35.111Z,4.59
2023-05-05T19:54:01.709Z,4.61
2023-05-05T19:56:28.348Z,4.59
2023-05-05T19:58:56.229Z,4.64
2023-05-05T20:01:25.769Z,4.53
2023-05-05T20:03:54.526Z,4.48
2023-05-05T20:06:23.282Z,4.59
2023-05-05T20:08:50.536Z,4.42
2023-05-05T20:11:17.416Z,4.37
2023-05-05T20:13:44.097Z,4.43
2023-05-05T20:16:10.854Z,4.40
2023-05-05T20:18:37.670Z,4.28
2023-05-05T20:21:04.413Z,4.24
2023-05-05T20:23:31.009Z,4.20
2023-05-05T20:25:57.912Z,4.19
2023-05-05T20:28:24.525Z,4.15
2023-05-05T20:30:51.106Z,4.12
2023-05-05T20:33:17.719Z,4.14
2023-05-05T20:35:44.299Z,4.11
2023-05-05T20:38:11.253Z,4.09
2023-05-05T20:40:37.884Z,4.11
2023-05-05T20:43:04.461Z,4.13
2023-05-05T20:45:33.803Z,4.08
2023-05-05T20:48:00.693Z,4.07
2023-05-05T20:50:27.365Z,4.05
2023-05-05T20:52:53.988Z,4.05
2023-05-05T20:55:20.755Z,4.00
2023-05-05T20:57:47.393Z,4.02
2023-05-05T21:00:14.610Z,3.98
2023-05-05T21:02:41.619Z,3.92
2023-05-05T21:05:08.548Z,3.95
2023-05-05T21:07:35.218Z,3.91
2023-05-05T21:10:02.490Z,3.92
2023-05-05T21:12:30.297Z,3.88
2023-05-05T21:14:58.650Z,3.85
2023-05-05T21:17:25.908Z,3.73
2023-05-05T21:19:53.071Z,3.68
2023-05-05T21:22:19.818Z,3.60
2023-05-05T21:24:49.657Z,3.54
2023-05-05T21:27:16.256Z,3.49
2023-05-05T21:29:42.803Z,3.65
2023-05-05T21:32:10.110Z,3.51
2023-05-05T21:34:37.409Z,3.49
2023-05-05T21:37:04.049Z,3.41
2023-05-05T21:39:32.385Z,3.36
2023-05-05T21:41:59.367Z,3.30
2023-05-05T21:44:26.468Z,3.31
2023-05-05T21:46:53.376Z,3.23
2023-05-05T21:49:19.992Z,3.22
2023-05-05T21:51:46.613Z,3.14
2023-05-05T21:54:13.183Z,3.11
2023-05-05T21:56:39.783Z,3.09
2023-05-05T21:59:06.391Z,3.05
2023-05-05T22:01:32.976Z,3.02
2023-05-05T22:03:59.830Z,3.06
2023-05-05T22:06:26.822Z,2.95
2023-05-05T22:08:53.622Z,2.92
2023-05-05T22:11:20.419Z,2.93
2023-05-05T22:13:47.112Z,2.90
2023-05-05T22:16:15.969Z,2.79
2023-05-05T22:18:42.625Z,2.75
2023-05-05T22:21:09.272Z,2.73
2023-05-05T22:23:37.222Z,2.73
2023-05-05T22:26:04.917Z,2.65
2023-05-05T22:28:31.532Z,2.63
2023-05-05T22:30:58.430Z,2.65
2023-05-05T22:33:25.152Z,2.58
2023-05-05T22:35:52.179Z,2.57
2023-05-05T22:38:18.879Z,2.60
2023-05-05T22:40:45.771Z,2.57
2023-05-05T22:43:12.631Z,2.46
2023-05-05T22:45:39.312Z,2.44
2023-05-05T22:48:06.039Z,2.40
2023-05-05T22:50:32.744Z,2.45
2023-05-05T22:52:59.385Z,2.40
2023-05-05T22:55:26.054Z,2.34
2023-05-05T22:57:52.872Z,2.34
2023-05-05T23:00:19.576Z,2.31
2023-05-05T23:02:46.272Z,2.27
2023-05-05T23:05:13.044Z,2.23
2023-05-05T23:07:39.749Z,2.23
2023-05-05T23:10:06.671Z,2.20
2023-05-05T23:12:33.448Z,2.15
2023-05-05T23:15:00.168Z,2.14
2023-05-05T23:17:26.812Z,2.11
2023-05-05T23:19:53.690Z,2.08
2023-05-05T23:22:20.392Z,2.08
2023-05-05T23:24:46.996Z,2.02
2023-05-05T23:27:13.701Z,1.95
2023-05-05T23:29:40.296Z,1.96
2023-05-05T23:32:06.962Z,1.92
2023-05-05T23:34:33.615Z,1.84
2023-05-05T23:37:00.189Z,1.76
2023-05-05T23:39:26.808Z,1.79
2023-05-05T23:41:53.510Z,1.71
2023-05-05T23:44:20.126Z,1.65
2023-05-05T23:46:46.749Z,1.65
2023-05-05T23:49:13.373Z,1.60
2023-05-05T23:51:39.979Z,1.56
2023-05-05T23:54:06.631Z,1.51
2023-05-05T23:56:33.272Z,1.49
2023-05-05T23:58:59.985Z,1.41
